GAP396 RPLL-RPMD
Flight info
| Callsign | GAP396 |
|---|---|
| Flight time | N/A |
| Altitude | 39000 |
| Route | IPATA2R IPATA B462 MASBA W9A BN W9 RIMAR RIMAR2R |
| Aircraft | A20N/M-V/N |
Departure
| Time | 2026-04-30 14:51 |
|---|---|
| Airport | Ninoy Aquino International Airport (RPLL) |
Arrival
| Time | N/A |
|---|---|
| Airport | Francisco Bangoy International Airport (RPMD) |
| Time | Latitude | Longitude | Altitude | Speed | Heading |
|---|---|---|---|---|---|
| 2026-04-30 14:21 | 14.50900 | 121.01361 | 84 ft | 0 kts | 329° |
| 2026-04-30 14:39 | 14.50891 | 121.01366 | 84 ft | 2 kts | 329° |
| 2026-04-30 14:40 | 14.50866 | 121.01382 | 84 ft | 2 kts | 329° |
| 2026-04-30 14:40 | 14.50853 | 121.01390 | 84 ft | 2 kts | 329° |
| 2026-04-30 14:40 | 14.50841 | 121.01398 | 84 ft | 0 kts | 329° |
| 2026-04-30 14:40 | 14.50831 | 121.01404 | 84 ft | 2 kts | 315° |
| 2026-04-30 14:41 | 14.50823 | 121.01417 | 84 ft | 2 kts | 290° |
| 2026-04-30 14:41 | 14.50820 | 121.01432 | 84 ft | 2 kts | 266° |
| 2026-04-30 14:41 | 14.50824 | 121.01447 | 84 ft | 1 kts | 244° |
| 2026-04-30 14:41 | 14.50827 | 121.01452 | 84 ft | 1 kts | 238° |
| 2026-04-30 14:42 | 14.50828 | 121.01454 | 84 ft | 0 kts | 239° |
| 2026-04-30 14:44 | 14.50827 | 121.01452 | 84 ft | 1 kts | 239° |
| 2026-04-30 14:44 | 14.50810 | 121.01422 | 84 ft | 5 kts | 240° |
| 2026-04-30 14:44 | 14.50789 | 121.01383 | 84 ft | 6 kts | 241° |
| 2026-04-30 14:44 | 14.50766 | 121.01341 | 84 ft | 7 kts | 236° |
| 2026-04-30 14:45 | 14.50722 | 121.01317 | 84 ft | 7 kts | 173° |
| 2026-04-30 14:45 | 14.50670 | 121.01306 | 84 ft | 8 kts | 216° |
| 2026-04-30 14:45 | 14.50635 | 121.01257 | 84 ft | 9 kts | 238° |
| 2026-04-30 14:45 | 14.50602 | 121.01198 | 84 ft | 9 kts | 240° |
| 2026-04-30 14:46 | 14.50567 | 121.01133 | 84 ft | 10 kts | 241° |
| 2026-04-30 14:46 | 14.50528 | 121.01063 | 84 ft | 11 kts | 239° |
| 2026-04-30 14:46 | 14.50487 | 121.00990 | 84 ft | 12 kts | 240° |
| 2026-04-30 14:46 | 14.50445 | 121.00912 | 84 ft | 12 kts | 242° |
| 2026-04-30 14:47 | 14.50399 | 121.00830 | 84 ft | 13 kts | 240° |
| 2026-04-30 14:47 | 14.50353 | 121.00746 | 84 ft | 13 kts | 241° |
| 2026-04-30 14:47 | 14.50306 | 121.00661 | 84 ft | 13 kts | 239° |
| 2026-04-30 14:47 | 14.50257 | 121.00575 | 84 ft | 14 kts | 240° |
| 2026-04-30 14:48 | 14.50207 | 121.00483 | 84 ft | 14 kts | 240° |
| 2026-04-30 14:48 | 14.50156 | 121.00391 | 84 ft | 15 kts | 241° |
| 2026-04-30 14:48 | 14.50103 | 121.00295 | 84 ft | 15 kts | 239° |
| 2026-04-30 14:48 | 14.50049 | 121.00200 | 84 ft | 15 kts | 239° |
| 2026-04-30 14:49 | 14.49995 | 121.00102 | 84 ft | 14 kts | 240° |
| 2026-04-30 14:49 | 14.49944 | 121.00013 | 84 ft | 9 kts | 240° |
| 2026-04-30 14:49 | 14.49911 | 120.99972 | 84 ft | 7 kts | 209° |
| 2026-04-30 14:49 | 14.49859 | 120.99975 | 84 ft | 8 kts | 162° |
| 2026-04-30 14:50 | 14.49818 | 121.00074 | 84 ft | 9 kts | 65° |
| 2026-04-30 14:50 | 14.49850 | 121.00134 | 84 ft | 10 kts | 61° |
| 2026-04-30 14:51 | 14.50038 | 121.00465 | 84 ft | 83 kts | 58° |
| 2026-04-30 14:51 | 14.50444 | 121.01196 | 84 ft | 152 kts | 58° |
| 2026-04-30 14:51 | 14.51546 | 121.03335 | 1361 ft | 168 kts | 62° |
| 2026-04-30 14:52 | 14.51998 | 121.04406 | 2230 ft | 164 kts | 60° |
| 2026-04-30 14:52 | 14.53084 | 121.06456 | 3679 ft | 168 kts | 52° |
| 2026-04-30 14:52 | 14.53683 | 121.07385 | 3801 ft | 147 kts | 51° |
| 2026-04-30 14:53 | 14.54790 | 121.09158 | 4204 ft | 147 kts | 53° |
| 2026-04-30 14:53 | 14.55325 | 121.10071 | 4433 ft | 157 kts | 54° |
| 2026-04-30 14:54 | 14.56616 | 121.12333 | 4963 ft | 212 kts | 57° |
| 2026-04-30 14:54 | 14.57549 | 121.15675 | 5322 ft | 273 kts | 81° |
| 2026-04-30 14:55 | 14.57948 | 121.19681 | 5724 ft | 282 kts | 82° |
| 2026-04-30 14:55 | 14.58155 | 121.21686 | 5923 ft | 283 kts | 81° |
| 2026-04-30 14:55 | 14.58230 | 121.25748 | 6304 ft | 288 kts | 108° |
| 2026-04-30 14:56 | 14.55619 | 121.28794 | 6714 ft | 292 kts | 145° |
| 2026-04-30 14:56 | 14.52291 | 121.31217 | 7117 ft | 293 kts | 145° |
| 2026-04-30 14:57 | 14.50635 | 121.32443 | 7317 ft | 294 kts | 144° |
| 2026-04-30 14:57 | 14.47307 | 121.34957 | 7721 ft | 296 kts | 144° |
| 2026-04-30 14:58 | 14.43995 | 121.37489 | 8122 ft | 298 kts | 144° |
| 2026-04-30 14:58 | 14.42345 | 121.38753 | 8321 ft | 299 kts | 144° |
| 2026-04-30 14:58 | 14.38982 | 121.41332 | 8725 ft | 301 kts | 144° |
| 2026-04-30 14:59 | 14.35614 | 121.43915 | 9134 ft | 315 kts | 144° |
| 2026-04-30 15:00 | 14.29973 | 121.48237 | 11319 ft | 338 kts | 144° |
| 2026-04-30 15:00 | 14.26169 | 121.51146 | 12908 ft | 345 kts | 145° |
| 2026-04-30 15:01 | 14.22304 | 121.54085 | 14487 ft | 350 kts | 145° |
| 2026-04-30 15:01 | 14.20338 | 121.55582 | 15249 ft | 352 kts | 145° |
| 2026-04-30 15:01 | 14.16381 | 121.58598 | 16719 ft | 357 kts | 146° |
| 2026-04-30 15:02 | 14.14412 | 121.60098 | 17415 ft | 359 kts | 146° |
| 2026-04-30 15:02 | 14.12401 | 121.61629 | 18102 ft | 362 kts | 146° |
| 2026-04-30 15:03 | 14.06262 | 121.66306 | 20097 ft | 368 kts | 146° |
| 2026-04-30 15:03 | 14.02229 | 121.69403 | 21314 ft | 372 kts | 146° |
| 2026-04-30 15:04 | 13.98041 | 121.72606 | 22510 ft | 377 kts | 146° |
| 2026-04-30 15:04 | 13.91681 | 121.77457 | 24195 ft | 384 kts | 145° |
| 2026-04-30 15:05 | 13.85456 | 121.82768 | 25749 ft | 394 kts | 135° |
| 2026-04-30 15:06 | 13.81846 | 121.87058 | 26724 ft | 399 kts | 131° |
| 2026-04-30 15:06 | 13.78271 | 121.91457 | 27637 ft | 404 kts | 131° |
| 2026-04-30 15:07 | 13.74651 | 121.95901 | 28472 ft | 408 kts | 131° |
| 2026-04-30 15:07 | 13.70977 | 122.00403 | 29236 ft | 413 kts | 131° |
| 2026-04-30 15:08 | 13.67272 | 122.04939 | 29935 ft | 417 kts | 131° |
| 2026-04-30 15:08 | 13.61640 | 122.11826 | 30879 ft | 423 kts | 131° |
| 2026-04-30 15:09 | 13.57840 | 122.16468 | 31446 ft | 427 kts | 130° |
| 2026-04-30 15:09 | 13.54012 | 122.21143 | 31978 ft | 430 kts | 130° |
| 2026-04-30 15:10 | 13.50132 | 122.25879 | 32484 ft | 434 kts | 130° |
| 2026-04-30 15:11 | 13.42364 | 122.35353 | 33573 ft | 435 kts | 130° |
| 2026-04-30 15:11 | 13.38477 | 122.40091 | 34162 ft | 434 kts | 130° |
| 2026-04-30 15:12 | 13.32667 | 122.47171 | 34972 ft | 432 kts | 130° |
| 2026-04-30 15:13 | 13.28786 | 122.51897 | 35474 ft | 431 kts | 130° |
| 2026-04-30 15:14 | 13.21110 | 122.61234 | 36403 ft | 429 kts | 130° |
| 2026-04-30 15:14 | 13.15354 | 122.68243 | 36935 ft | 421 kts | 130° |
| 2026-04-30 15:16 | 13.06041 | 122.79588 | 34139 ft | 422 kts | 131° |
| 2026-04-30 15:17 | 12.98364 | 122.88896 | 31228 ft | 433 kts | 131° |
| 2026-04-30 15:18 | 12.89161 | 123.00034 | 28681 ft | 419 kts | 131° |
| 2026-04-30 15:19 | 12.83330 | 123.07045 | 27107 ft | 410 kts | 131° |